• Join FlightAware (Why Join?)
  • Login
  • US Flag 
06:43PM EDT


 

Airport Tracker/Info


-or-


 

Live Flight TrackerFlight Track Log ✈ N860BA ✈ 21-Aug-2013 ✈ KFTW - YCTM / CMD

Flight Track Log - Related Links

Times and Time Zones

All times are in EDT time to prevent confusion due to time zone crossing. See the N860BA flight status page for this flight to view local times or setup timezone preferences in your user account.

Time Position Orientation Groundspeed Altitude Reporting Facility
EDT Latitude Longitude Course Direction KTS MPH feet Rate Location/Type
08:29PM 32.7167 -97.3333 170° South 239 275 4,300  Level Dallas / Fort Worth TRACON
08:30PM 32.6667 -97.2833 140° Southeast 263 303 7,600 2,940 Climbing Dallas / Fort Worth TRACON
08:31PM 32.6500 -97.2167 107° East 282 325 10,300 2,520 Climbing Dallas / Fort Worth TRACON
08:33PM 32.7094 -97.0036 72° East 311 358 15,700 2,160 Climbing Fort Worth Center
08:34PM 32.7300 -96.9097 75° East 311 358 17,400 1,440 Climbing Fort Worth Center
08:35PM 32.7567 -96.8008 74° East 332 382 18,600 1,140 Climbing Fort Worth Center
08:36PM 32.7872 -96.6672 75° East 364 419 19,700 1,020 Climbing Fort Worth Center
08:37PM 32.8136 -96.5508 75° East 386 444 20,700 1,200 Climbing Fort Worth Center
08:38PM 32.8481 -96.4044 74° East 405 466 22,100 1,320 Climbing Fort Worth Center
08:39PM 32.8681 -96.2831 79° East 413 475 23,400 1,260 Climbing Fort Worth Center
08:40PM 32.8686 -96.1397 90° East 413 475 24,700 1,380 Climbing Fort Worth Center
08:41PM 32.8736 -96.0011 88° East 413 475 26,200 1,440 Climbing Fort Worth Center
08:42PM 32.8739 -95.8625 90° East 418 481 27,600 1,440 Climbing Fort Worth Center
08:43PM 32.8742 -95.7217 90° East 418 481 29,100 1,320 Climbing Fort Worth Center
08:44PM 32.8764 -95.5831 89° East 418 481 30,300 900 Climbing Fort Worth Center
08:45PM 32.8786 -95.4419 89° East 418 481 31,000 600 Climbing Fort Worth Center
08:46PM 32.8950 -95.2931 82° East 429 494 31,500 540 Climbing Fort Worth Center
08:47PM 32.9217 -95.1464 78° East 441 507 32,100 540 Climbing Fort Worth Center
08:48PM 32.9522 -94.9947 76° East 455 524 32,600 540 Climbing Fort Worth Center
08:49PM 32.9847 -94.8428 76° East 460 529 33,200 540 Climbing Fort Worth Center
08:50PM 33.0147 -94.6883 77° East 470 541 33,700 480 Climbing Fort Worth Center
08:51PM 33.0467 -94.5286 77° East 475 547 34,200 480 Climbing Fort Worth Center
08:52PM 33.0764 -94.3742 77° East 475 547 34,700 360 Climbing Fort Worth Center
08:53PM 33.1058 -94.2169 77° East 475 547 35,000 120 Climbing Fort Worth Center
08:54PM 33.1353 -94.0569 78° East 475 547 35,000  Level Fort Worth Center
08:55PM 33.1642 -93.8922 78° East 487 560 35,000  Level Fort Worth Center
08:56PM 33.2006 -93.7119 76° East 500 575 35,000  Level Fort Worth Center
08:57PM 33.2333 -93.5492 76° East 500 575 35,000  Level Fort Worth Center
08:58PM 33.2636 -93.3889 77° East 495 570 35,000 -120 Level Fort Worth Center
08:59PM 33.2939 -93.2286 77° East 495 570 34,800 -420 Descending Fort Worth Center
09:00PM 33.3258 -93.0631 77° East 495 570 34,200 -600 Descending Fort Worth Center
09:01PM 33.3575 -92.8972 77° East 495 570 33,600 -600 Descending Fort Worth Center
09:02PM 33.3869 -92.7292 78° East 500 575 33,000 -300 Descending Fort Worth Center
09:03PM 33.4181 -92.5633 77° East 500 575 33,000  Level Fort Worth Center
09:04PM 33.4444 -92.3986 79° East 510 587 33,000  Level Memphis Center
09:05PM 33.4742 -92.2350 78° East 510 587 33,000  Level Memphis Center
09:06PM 33.5036 -92.0711 78° East 505 581 33,000  Level Memphis Center
09:07PM 33.5308 -91.9022 79° East 505 581 33,000  Level Memphis Center
09:08PM 33.5642 -91.7383 76° East 505 581 33,000  Level Memphis Center
09:09PM 33.5844 -91.5742 82° East 505 581 33,000  Level Memphis Center
09:10PM 33.6089 -91.4047 80° East 505 581 33,000  Level Memphis Center
09:11PM 33.6292 -91.2403 82° East 505 581 33,000  Level Memphis Center
09:12PM 33.6511 -91.0683 81° East 505 581 33,000  Level Memphis Center
09:13PM 33.6708 -90.8814 83° East 511 588 33,000  Level Memphis Center
09:14PM 33.6922 -90.7117 81° East 511 588 33,000  Level Memphis Center
09:15PM 33.7133 -90.5419 81° East 511 588 33,000  Level Memphis Center
09:16PM 33.7322 -90.3747 82° East 511 588 33,000  Level Memphis Center
09:17PM 33.7511 -90.2047 82° East 511 588 33,000  Level Memphis Center
09:18PM 33.7717 -90.0347 82° East 511 588 33,000  Level Memphis Center
09:19PM 33.7897 -89.8647 83° East 511 588 33,000  Level Memphis Center
09:20PM 33.8097 -89.6947 82° East 511 588 33,000  Level Memphis Center
09:21PM 33.8236 -89.5344 84° East 526 605 33,000 -660 Level Memphis Center
09:22PM 33.8411 -89.3644 83° East 521 600 31,700 -1,500 Descending Memphis Center
09:23PM 33.8689 -89.1939 79° East 521 600 30,000 -1,800 Descending Memphis Center
09:24PM 33.8983 -89.0283 78° East 510 587 28,200 -1,800 Descending Memphis Center
09:25PM 33.9278 -88.8678 77° East 493 567 26,400 -1,800 Descending Memphis Center
09:26PM 33.9553 -88.7194 77° East 470 541 24,700 -1,800 Descending Memphis Center
09:27PM 33.9864 -88.5611 77° East 470 541 22,900 -1,860 Descending Memphis Center
09:28PM 34.0153 -88.4025 78° East 470 541 21,000 -1,860 Descending Memphis Center
09:29PM 34.0419 -88.2464 78° East 470 541 19,200 -1,680 Descending Memphis Center
09:30PM 34.0644 -88.1056 79° East 470 541 17,700 -1,920 Descending Memphis Center
09:31PM 34.0822 -87.9294 83° East 456 525 15,400 -2,100 Descending Memphis Center
09:32PM 34.0961 -87.7886 83° East 439 505 13,500 -1,860 Descending Memphis Center
09:33PM 34.1081 -87.6656 83° East 401 461 11,700 -1,860 Descending Memphis Center
09:34PM 34.1181 -87.5547 84° East 358 412 9,800 -1,920 Descending Memphis Center
09:35PM 34.1261 -87.4517 85° East 327 376 8,000 -2,400 Descending Memphis Center
09:36PM 34.1364 -87.3533 83° East 306 352 5,000 -1,560 Descending Memphis Center
09:37PM 34.1444 -87.2628 84° East 291 335 4,900 -360 Descending Memphis Center
09:38PM 34.1547 -87.1769 82° East 268 308 4,300 -480 Descending Memphis Center
09:39PM 34.1631 -87.0939 83° East 253 291 4,000 -240 Descending Memphis Center
09:40PM 34.1736 -87.0181 80° East 241 277 3,900 -120 Descending Memphis Center
09:41PM 34.1822 -86.9500 81° East 233 268 3,800 540 Descending Memphis Center
09:42PM 34.1906 -86.8744 82° East 233 268 5,000 600 Climbing Memphis Center
09:43PM 34.1989 -86.7986 82° East 233 268 5,000  Level Memphis Center
09:44PM 34.2072 -86.7231 82° East 233 268 5,000  Level Memphis Center
09:45PM 34.2086 -86.7078 84° East 233 268 5,000  Level Memphis Center
09:47PM 34.2086 -86.7078 59° Northeast 233 268 5,000  Level Memphis Center
09:49PM 34.2086 -86.7078 59° Northeast 233 268 5,000  Level Memphis Center